SBPLSBUF

Guest
Details From SBPL - SENADOR NILO COELHO
To SBUF - PAULO AFONSO
Flight Number -
Tags generated
Created
Modified
Stats Distance 137 nm / 255 km
Max Altitude 5,500 ft / 1,676 m
Waypoints 4
Social Downloads 1
Likes 0
Share VATSIM

Download

Looking for another format? Having issues loading an existing format? Contact us
Advertisement - Login to hide

Notes

Basic altitude profile: - Ascent Rate: 2500ft/min - Ascent Speed: 250kts - Cruise Altitude: 35000ft - Cruise Speed: 420kts - Descent Rate: 1500ft/min - Descent Speed: 250kts Options: - Use NATs: yes - Use PACOTS: yes - Use low airways: yes - Use high airways: yes

Route

SBPL PTL W8 PAF SBUF

ID Type Via Altitude Latitude Longitude Leg Dist Tot Dist Heading (true) Name
O SBPL APT - 0 ft / 0 m -9.36241˚ -40.56910˚ - 0 nm - SENADOR NILO COELHO
PTL VOR - 100 ft / 30 m -9.36317˚ -40.56133˚ 0 nm 0 nm 96° / 96° PETROLINA VOR-DME
PAF VOR W8 (AWY-LO) 5,500 ft / 1,676 m -9.40200˚ -38.25283˚ 136 nm 137 nm 91° / 91° PAULO AFONSO VOR
O SBUF APT - 0 ft / 0 m -9.40088˚ -38.25057˚ 0 nm 137 nm 63° / 63° PAULO AFONSO

Altitude Profile

Advertisement - Login to hide

SBPL

Details ICAO SBPL (PNZ)
Name SENADOR NILO COELHO
Region Brazil
Timezone America/Recife (UTC-3.0)
Stats Elevation 1,263 ft / 385 m (AMSL)
Location -9.362412° -40.569099°
Runways 1
Magnetic Variation 22.596° W

METAR

SBPL 121600Z 09006KT 9999 FEW035 35/18 Q1011

Decode

TAF

TAF TAF SBPL 121000Z 1212/1312 06005KT 8000 BKN020 TX31/1214Z TN23/1308Z BECMG 1214/1216 30007KT PROB30 1218/1221 6000 TSRA BKN020 FEW030CB BECMG 1300/1302 29004KT SCT020 BECMG 1305/1307 04006KT RMK PEI

Decode

Departure Runways

ID Width Length Bearing (true) Bearing (mag) Surface Threshold Offset Overrun Length
13 140 ft / 43 m 10,642 ft / 3,244 m 109.17° 131.77° Asphalt 1,605 ft / 489 m 0 ft / 0 m
31 140 ft / 43 m 10,642 ft / 3,244 m 289.16° 311.76° Asphalt 0 ft / 0 m 0 ft / 0 m

SBUF

Details ICAO SBUF (PAV)
Name PAULO AFONSO
Region Brazil
Timezone America/Bahia (UTC-3.0)
Stats Elevation 883 ft / 269 m (AMSL)
Location -9.400877° -38.250575°
Runways 1
Magnetic Variation 22.667° W

METAR

SBUF 121500Z 18006KT 9999 SCT022 37/17 Q1011

Decode

TAF

Not found

Destination Runways

ID Width Length Bearing (true) Bearing (mag) Surface Threshold Offset Overrun Length
14 148 ft / 45 m 5,904 ft / 1,799 m 115.96° 138.63° Asphalt 0 ft / 0 m 0 ft / 0 m
32 148 ft / 45 m 5,904 ft / 1,799 m 295.96° 318.63° Asphalt 0 ft / 0 m 0 ft / 0 m